sensor_id;sensor_type;location;lat;lon;timestamp;pressure;altitude;pressure_sealevel;temperature;humidity
61434;BME280;47300;46.192;9.000;2022-12-20T00:01:25;99674.69;;;1.69;92.55
61434;BME280;47300;46.192;9.000;2022-12-20T00:03:51;99676.78;;;1.76;91.30
61434;BME280;47300;46.192;9.000;2022-12-20T00:06:17;99668.50;;;1.83;89.97
61434;BME280;47300;46.192;9.000;2022-12-20T00:08:43;99664.44;;;1.88;90.41
61434;BME280;47300;46.192;9.000;2022-12-20T00:11:09;99667.44;;;1.96;88.88
61434;BME280;47300;46.192;9.000;2022-12-20T00:13:35;99662.34;;;1.98;88.61
61434;BME280;47300;46.192;9.000;2022-12-20T00:16:11;99654.19;;;2.08;88.21
61434;BME280;47300;46.192;9.000;2022-12-20T00:18:37;99640.34;;;2.08;87.47
61434;BME280;47300;46.192;9.000;2022-12-20T00:21:05;99644.66;;;2.07;88.26
61434;BME280;47300;46.192;9.000;2022-12-20T00:23:31;99639.47;;;2.07;88.68
61434;BME280;47300;46.192;9.000;2022-12-20T00:26:09;99635.09;;;2.06;88.29
61434;BME280;47300;46.192;9.000;2022-12-20T00:28:35;99638.81;;;2.11;88.28
61434;BME280;47300;46.192;9.000;2022-12-20T00:31:01;99637.59;;;2.05;88.35
61434;BME280;47300;46.192;9.000;2022-12-20T00:33:27;99630.34;;;1.97;88.66
61434;BME280;47300;46.192;9.000;2022-12-20T00:35:54;99632.16;;;1.64;91.48
61434;BME280;47300;46.192;9.000;2022-12-20T00:38:21;99619.97;;;1.28;95.12
61434;BME280;47300;46.192;9.000;2022-12-20T00:40:47;99630.88;;;1.39;93.96
61434;BME280;47300;46.192;9.000;2022-12-20T00:43:12;99618.81;;;1.56;90.59
61434;BME280;47300;46.192;9.000;2022-12-20T00:45:38;99620.34;;;1.69;89.49
61434;BME280;47300;46.192;9.000;2022-12-20T00:48:03;99611.09;;;1.74;88.96
61434;BME280;47300;46.192;9.000;2022-12-20T00:50:29;99606.06;;;1.77;90.57
61434;BME280;47300;46.192;9.000;2022-12-20T00:52:54;99604.09;;;1.71;92.14
61434;BME280;47300;46.192;9.000;2022-12-20T00:55:19;99597.34;;;1.75;92.42
61434;BME280;47300;46.192;9.000;2022-12-20T00:57:45;99602.50;;;1.75;92.74
61434;BME280;47300;46.192;9.000;2022-12-20T01:00:10;99599.78;;;1.72;91.93
61434;BME280;47300;46.192;9.000;2022-12-20T01:02:36;99599.69;;;1.70;92.73
61434;BME280;47300;46.192;9.000;2022-12-20T01:05:01;99594.59;;;1.72;92.86
61434;BME280;47300;46.192;9.000;2022-12-20T01:07:26;99606.00;;;1.76;91.95
61434;BME280;47300;46.192;9.000;2022-12-20T01:09:51;99605.19;;;1.77;91.41
61434;BME280;47300;46.192;9.000;2022-12-20T01:12:18;99613.50;;;1.53;93.21
61434;BME280;47300;46.192;9.000;2022-12-20T01:14:43;99620.53;;;1.39;93.61
61434;BME280;47300;46.192;9.000;2022-12-20T01:17:08;99623.31;;;1.25;95.08
61434;BME280;47300;46.192;9.000;2022-12-20T01:19:34;99624.84;;;1.22;96.87
61434;BME280;47300;46.192;9.000;2022-12-20T01:21:59;99630.06;;;1.40;96.25
61434;BME280;47300;46.192;9.000;2022-12-20T01:24:24;99634.13;;;1.35;96.70
61434;BME280;47300;46.192;9.000;2022-12-20T01:26:50;99640.38;;;1.38;96.70
61434;BME280;47300;46.192;9.000;2022-12-20T01:29:15;99638.66;;;1.39;97.19
61434;BME280;47300;46.192;9.000;2022-12-20T01:31:41;99638.00;;;1.43;97.42
61434;BME280;47300;46.192;9.000;2022-12-20T01:34:07;99647.53;;;1.44;97.99
61434;BME280;47300;46.192;9.000;2022-12-20T01:36:34;99633.78;;;1.45;97.68
61434;BME280;47300;46.192;9.000;2022-12-20T01:39:08;99638.81;;;1.42;94.95
61434;BME280;47300;46.192;9.000;2022-12-20T01:41:36;99634.00;;;1.66;90.76
61434;BME280;47300;46.192;9.000;2022-12-20T01:46:40;99630.75;;;1.70;91.15
61434;BME280;47300;46.192;9.000;2022-12-20T01:49:12;99634.34;;;1.72;90.27
61434;BME280;47300;46.192;9.000;2022-12-20T01:51:45;99626.75;;;1.59;91.81
61434;BME280;47300;46.192;9.000;2022-12-20T01:54:24;99626.19;;;1.48;91.98
61434;BME280;47300;46.192;9.000;2022-12-20T01:56:56;99623.44;;;1.62;90.92
61434;BME280;47300;46.192;9.000;2022-12-20T01:59:24;99624.69;;;1.70;89.68
61434;BME280;47300;46.192;9.000;2022-12-20T02:01:49;99611.25;;;1.77;88.67
61434;BME280;47300;46.192;9.000;2022-12-20T02:04:15;99604.00;;;1.70;90.14
61434;BME280;47300;46.192;9.000;2022-12-20T02:06:40;99603.09;;;1.69;89.94
61434;BME280;47300;46.192;9.000;2022-12-20T02:09:06;99601.69;;;1.76;89.91
61434;BME280;47300;46.192;9.000;2022-12-20T02:20:05;99591.56;;;1.46;91.74
61434;BME280;47300;46.192;9.000;2022-12-20T02:30:49;99570.94;;;1.13;96.92
61434;BME280;47300;46.192;9.000;2022-12-20T02:33:20;99569.50;;;1.18;97.26
61434;BME280;47300;46.192;9.000;2022-12-20T02:35:46;99571.31;;;1.21;96.73
61434;BME280;47300;46.192;9.000;2022-12-20T02:38:28;99577.06;;;1.32;94.89
61434;BME280;47300;46.192;9.000;2022-12-20T02:41:09;99576.81;;;1.27;95.25
61434;BME280;47300;46.192;9.000;2022-12-20T02:43:37;99573.03;;;1.20;96.02
61434;BME280;47300;46.192;9.000;2022-12-20T02:46:25;99579.75;;;1.17;96.45
61434;BME280;47300;46.192;9.000;2022-12-20T02:48:51;99583.31;;;0.85;97.77
61434;BME280;47300;46.192;9.000;2022-12-20T02:51:19;99592.28;;;1.09;95.15
61434;BME280;47300;46.192;9.000;2022-12-20T02:53:46;99587.91;;;1.24;94.56
61434;BME280;47300;46.192;9.000;2022-12-20T02:56:18;99580.16;;;1.24;94.43
61434;BME280;47300;46.192;9.000;2022-12-20T02:58:51;99578.78;;;1.14;94.56
61434;BME280;47300;46.192;9.000;2022-12-20T03:01:24;99569.81;;;1.08;95.18
61434;BME280;47300;46.192;9.000;2022-12-20T03:03:52;99568.13;;;1.08;96.90
61434;BME280;47300;46.192;9.000;2022-12-20T03:06:18;99566.00;;;1.18;95.79
61434;BME280;47300;46.192;9.000;2022-12-20T03:08:44;99563.41;;;1.34;92.12
61434;BME280;47300;46.192;9.000;2022-12-20T03:11:10;99569.16;;;1.28;94.80
61434;BME280;47300;46.192;9.000;2022-12-20T03:13:36;99569.22;;;1.30;94.37
61434;BME280;47300;46.192;9.000;2022-12-20T03:16:01;99566.91;;;1.18;95.22
61434;BME280;47300;46.192;9.000;2022-12-20T03:18:26;99566.00;;;1.18;95.85
61434;BME280;47300;46.192;9.000;2022-12-20T03:20:52;99558.41;;;1.21;96.19
61434;BME280;47300;46.192;9.000;2022-12-20T03:23:17;99553.16;;;1.19;95.13
61434;BME280;47300;46.192;9.000;2022-12-20T03:25:42;99552.56;;;1.41;88.78
61434;BME280;47300;46.192;9.000;2022-12-20T03:28:08;99552.47;;;1.40;92.53
61434;BME280;47300;46.192;9.000;2022-12-20T03:30:33;99556.88;;;1.08;96.74
61434;BME280;47300;46.192;9.000;2022-12-20T03:32:59;99555.59;;;1.16;94.37
61434;BME280;47300;46.192;9.000;2022-12-20T03:35:24;99556.66;;;1.38;91.08
61434;BME280;47300;46.192;9.000;2022-12-20T03:37:50;99555.00;;;1.22;93.59
61434;BME280;47300;46.192;9.000;2022-12-20T03:40:15;99557.53;;;1.20;93.91
61434;BME280;47300;46.192;9.000;2022-12-20T03:42:40;99554.34;;;1.26;93.30
61434;BME280;47300;46.192;9.000;2022-12-20T03:45:06;99553.53;;;1.27;92.87
61434;BME280;47300;46.192;9.000;2022-12-20T03:47:31;99552.41;;;1.38;91.44
61434;BME280;47300;46.192;9.000;2022-12-20T03:49:57;99549.88;;;1.40;92.97
61434;BME280;47300;46.192;9.000;2022-12-20T03:52:22;99546.78;;;1.47;91.99
61434;BME280;47300;46.192;9.000;2022-12-20T03:54:48;99536.41;;;1.47;92.09
61434;BME280;47300;46.192;9.000;2022-12-20T03:57:13;99542.94;;;1.57;91.90
61434;BME280;47300;46.192;9.000;2022-12-20T03:59:38;99536.38;;;1.46;91.49
61434;BME280;47300;46.192;9.000;2022-12-20T04:02:04;99544.78;;;1.41;90.98
61434;BME280;47300;46.192;9.000;2022-12-20T04:04:29;99545.09;;;1.48;91.84
61434;BME280;47300;46.192;9.000;2022-12-20T04:06:55;99543.22;;;1.45;91.44
61434;BME280;47300;46.192;9.000;2022-12-20T04:09:20;99539.00;;;1.47;90.73
61434;BME280;47300;46.192;9.000;2022-12-20T04:11:45;99529.72;;;1.16;92.73
61434;BME280;47300;46.192;9.000;2022-12-20T04:14:11;99526.91;;;1.11;93.34
61434;BME280;47300;46.192;9.000;2022-12-20T04:16:36;99526.66;;;1.07;94.14
61434;BME280;47300;46.192;9.000;2022-12-20T04:19:01;99525.22;;;0.95;95.65
61434;BME280;47300;46.192;9.000;2022-12-20T04:21:29;99525.97;;;1.27;93.78
61434;BME280;47300;46.192;9.000;2022-12-20T04:23:55;99522.81;;;1.33;92.41
61434;BME280;47300;46.192;9.000;2022-12-20T04:26:21;99520.59;;;0.90;96.16
61434;BME280;47300;46.192;9.000;2022-12-20T04:28:46;99529.16;;;0.89;95.23
61434;BME280;47300;46.192;9.000;2022-12-20T04:31:12;99524.34;;;0.95;95.06
61434;BME280;47300;46.192;9.000;2022-12-20T04:33:38;99521.97;;;0.99;93.75
61434;BME280;47300;46.192;9.000;2022-12-20T04:36:04;99528.06;;;1.00;94.26
61434;BME280;47300;46.192;9.000;2022-12-20T04:38:29;99527.09;;;0.98;95.85
61434;BME280;47300;46.192;9.000;2022-12-20T04:40:55;99522.00;;;0.83;96.67
61434;BME280;47300;46.192;9.000;2022-12-20T04:43:21;99514.00;;;0.78;96.54
61434;BME280;47300;46.192;9.000;2022-12-20T04:45:49;99520.47;;;0.70;97.64
61434;BME280;47300;46.192;9.000;2022-12-20T04:48:15;99508.09;;;0.64;98.88
61434;BME280;47300;46.192;9.000;2022-12-20T04:50:40;99510.38;;;0.58;99.46
61434;BME280;47300;46.192;9.000;2022-12-20T04:53:05;99501.88;;;0.27;99.15
61434;BME280;47300;46.192;9.000;2022-12-20T04:55:50;99499.69;;;0.35;100.00
61434;BME280;47300;46.192;9.000;2022-12-20T04:58:15;99487.28;;;0.45;100.00
61434;BME280;47300;46.192;9.000;2022-12-20T05:00:41;99490.25;;;0.19;100.00
61434;BME280;47300;46.192;9.000;2022-12-20T05:03:06;99491.03;;;0.18;100.00
61434;BME280;47300;46.192;9.000;2022-12-20T05:05:32;99495.31;;;0.18;100.00
61434;BME280;47300;46.192;9.000;2022-12-20T05:07:57;99491.13;;;0.03;100.00
61434;BME280;47300;46.192;9.000;2022-12-20T05:10:23;99497.19;;;0.20;100.00
61434;BME280;47300;46.192;9.000;2022-12-20T05:12:48;99495.66;;;0.24;100.00
61434;BME280;47300;46.192;9.000;2022-12-20T05:15:14;99489.19;;;0.32;100.00
61434;BME280;47300;46.192;9.000;2022-12-20T05:17:39;99491.63;;;0.29;100.00
61434;BME280;47300;46.192;9.000;2022-12-20T05:20:05;99490.31;;;0.37;100.00
61434;BME280;47300;46.192;9.000;2022-12-20T05:22:31;99486.59;;;0.32;100.00
61434;BME280;47300;46.192;9.000;2022-12-20T05:25:15;99486.78;;;0.52;100.00
61434;BME280;47300;46.192;9.000;2022-12-20T05:27:59;99489.31;;;0.67;99.26
61434;BME280;47300;46.192;9.000;2022-12-20T05:30:24;99495.66;;;0.74;98.82
61434;BME280;47300;46.192;9.000;2022-12-20T05:32:50;99493.50;;;0.65;98.62
61434;BME280;47300;46.192;9.000;2022-12-20T05:35:16;99484.13;;;0.67;98.46
61434;BME280;47300;46.192;9.000;2022-12-20T05:37:41;99492.03;;;0.70;98.62
61434;BME280;47300;46.192;9.000;2022-12-20T05:40:07;99488.16;;;0.78;98.75
61434;BME280;47300;46.192;9.000;2022-12-20T05:42:33;99498.44;;;0.43;100.00
61434;BME280;47300;46.192;9.000;2022-12-20T05:44:58;99498.66;;;0.48;100.00
61434;BME280;47300;46.192;9.000;2022-12-20T05:47:25;99500.84;;;0.40;99.62
61434;BME280;47300;46.192;9.000;2022-12-20T05:49:50;99492.38;;;0.60;100.00
61434;BME280;47300;46.192;9.000;2022-12-20T05:52:15;99492.75;;;0.67;99.88
61434;BME280;47300;46.192;9.000;2022-12-20T05:54:41;99495.66;;;0.74;99.99
61434;BME280;47300;46.192;9.000;2022-12-20T05:57:06;99489.06;;;0.79;99.72
61434;BME280;47300;46.192;9.000;2022-12-20T05:59:31;99491.94;;;0.85;98.03
61434;BME280;47300;46.192;9.000;2022-12-20T06:01:57;99486.94;;;0.88;97.75
61434;BME280;47300;46.192;9.000;2022-12-20T06:04:22;99497.41;;;1.08;96.33
61434;BME280;47300;46.192;9.000;2022-12-20T06:06:47;99492.72;;;1.17;96.02
61434;BME280;47300;46.192;9.000;2022-12-20T06:09:13;99485.16;;;1.22;96.03
61434;BME280;47300;46.192;9.000;2022-12-20T06:11:38;99485.00;;;1.19;96.40
61434;BME280;47300;46.192;9.000;2022-12-20T06:14:03;99490.94;;;0.99;97.28
61434;BME280;47300;46.192;9.000;2022-12-20T06:16:29;99485.13;;;1.04;96.72
61434;BME280;47300;46.192;9.000;2022-12-20T06:18:55;99480.41;;;0.95;96.18
61434;BME280;47300;46.192;9.000;2022-12-20T06:21:21;99475.84;;;0.91;97.05
61434;BME280;47300;46.192;9.000;2022-12-20T06:23:46;99466.41;;;0.91;97.76
61434;BME280;47300;46.192;9.000;2022-12-20T06:26:11;99479.19;;;0.88;98.26
61434;BME280;47300;46.192;9.000;2022-12-20T06:28:37;99465.56;;;0.57;100.00
61434;BME280;47300;46.192;9.000;2022-12-20T06:31:08;99469.69;;;0.54;100.00
61434;BME280;47300;46.192;9.000;2022-12-20T06:33:35;99464.31;;;0.67;99.01
61434;BME280;47300;46.192;9.000;2022-12-20T06:36:00;99459.56;;;0.75;98.81
61434;BME280;47300;46.192;9.000;2022-12-20T06:38:25;99466.97;;;0.85;98.51
61434;BME280;47300;46.192;9.000;2022-12-20T06:40:51;99463.88;;;1.09;98.35
61434;BME280;47300;46.192;9.000;2022-12-20T06:43:16;99464.88;;;0.95;98.45
61434;BME280;47300;46.192;9.000;2022-12-20T06:45:42;99468.50;;;0.98;97.72
61434;BME280;47300;46.192;9.000;2022-12-20T06:48:08;99471.28;;;0.85;98.36
61434;BME280;47300;46.192;9.000;2022-12-20T06:50:33;99469.09;;;0.76;98.91
61434;BME280;47300;46.192;9.000;2022-12-20T06:52:58;99457.47;;;0.68;100.00
61434;BME280;47300;46.192;9.000;2022-12-20T06:55:24;99458.56;;;0.90;100.00
61434;BME280;47300;46.192;9.000;2022-12-20T06:57:49;99460.00;;;1.01;99.82
61434;BME280;47300;46.192;9.000;2022-12-20T07:00:15;99469.81;;;0.90;98.60
61434;BME280;47300;46.192;9.000;2022-12-20T07:02:41;99470.84;;;0.94;99.33
61434;BME280;47300;46.192;9.000;2022-12-20T07:05:06;99487.75;;;0.87;99.08
61434;BME280;47300;46.192;9.000;2022-12-20T07:07:32;99482.97;;;0.78;99.96
61434;BME280;47300;46.192;9.000;2022-12-20T07:09:57;99479.53;;;0.78;99.85
61434;BME280;47300;46.192;9.000;2022-12-20T07:12:23;99496.97;;;0.82;100.00
61434;BME280;47300;46.192;9.000;2022-12-20T07:14:48;99488.09;;;0.43;100.00
61434;BME280;47300;46.192;9.000;2022-12-20T07:17:14;99477.66;;;0.75;100.00
61434;BME280;47300;46.192;9.000;2022-12-20T07:19:39;99475.78;;;0.89;100.00
61434;BME280;47300;46.192;9.000;2022-12-20T07:22:05;99478.38;;;1.24;99.41
61434;BME280;47300;46.192;9.000;2022-12-20T07:24:31;99484.94;;;1.17;97.35
61434;BME280;47300;46.192;9.000;2022-12-20T07:26:56;99480.75;;;1.19;97.54
61434;BME280;47300;46.192;9.000;2022-12-20T07:29:23;99487.47;;;1.34;97.58
61434;BME280;47300;46.192;9.000;2022-12-20T07:31:50;99495.44;;;1.20;97.00
61434;BME280;47300;46.192;9.000;2022-12-20T07:34:15;99505.41;;;1.12;96.64
61434;BME280;47300;46.192;9.000;2022-12-20T07:36:40;99500.13;;;1.11;94.91
61434;BME280;47300;46.192;9.000;2022-12-20T07:39:06;99510.81;;;1.00;96.72
61434;BME280;47300;46.192;9.000;2022-12-20T07:41:32;99504.34;;;1.09;95.90
61434;BME280;47300;46.192;9.000;2022-12-20T07:43:58;99502.91;;;0.97;93.90
61434;BME280;47300;46.192;9.000;2022-12-20T07:46:23;99509.19;;;1.19;96.26
61434;BME280;47300;46.192;9.000;2022-12-20T07:48:48;99516.00;;;1.17;95.62
61434;BME280;47300;46.192;9.000;2022-12-20T07:51:18;99516.28;;;1.23;94.37
61434;BME280;47300;46.192;9.000;2022-12-20T07:53:50;99513.75;;;1.41;93.95
61434;BME280;47300;46.192;9.000;2022-12-20T07:56:18;99508.06;;;1.49;93.91
61434;BME280;47300;46.192;9.000;2022-12-20T07:58:46;99508.91;;;1.49;92.43
61434;BME280;47300;46.192;9.000;2022-12-20T08:01:13;99509.13;;;1.36;91.57
61434;BME280;47300;46.192;9.000;2022-12-20T08:03:43;99513.78;;;1.43;92.81
61434;BME280;47300;46.192;9.000;2022-12-20T08:06:11;99509.44;;;1.42;93.61
61434;BME280;47300;46.192;9.000;2022-12-20T08:08:39;99505.53;;;1.50;93.87
61434;BME280;47300;46.192;9.000;2022-12-20T08:11:06;99494.75;;;1.59;93.42
61434;BME280;47300;46.192;9.000;2022-12-20T08:13:33;99498.53;;;1.66;93.47
61434;BME280;47300;46.192;9.000;2022-12-20T08:15:59;99495.78;;;1.63;93.81
61434;BME280;47300;46.192;9.000;2022-12-20T08:18:25;99501.31;;;1.70;94.35
61434;BME280;47300;46.192;9.000;2022-12-20T08:20:50;99484.47;;;1.61;95.72
61434;BME280;47300;46.192;9.000;2022-12-20T08:23:15;99475.44;;;1.70;95.94
61434;BME280;47300;46.192;9.000;2022-12-20T08:25:41;99474.78;;;1.56;96.36
61434;BME280;47300;46.192;9.000;2022-12-20T08:28:06;99468.00;;;1.58;96.48
61434;BME280;47300;46.192;9.000;2022-12-20T08:30:31;99468.69;;;1.20;97.61
61434;BME280;47300;46.192;9.000;2022-12-20T08:32:57;99473.59;;;1.32;99.00
61434;BME280;47300;46.192;9.000;2022-12-20T08:35:22;99471.72;;;1.29;99.48
61434;BME280;47300;46.192;9.000;2022-12-20T08:37:50;99470.53;;;1.22;99.24
61434;BME280;47300;46.192;9.000;2022-12-20T08:40:17;99470.97;;;1.13;99.83
61434;BME280;47300;46.192;9.000;2022-12-20T08:42:43;99464.75;;;1.28;100.00
61434;BME280;47300;46.192;9.000;2022-12-20T08:45:09;99454.50;;;1.29;99.12
61434;BME280;47300;46.192;9.000;2022-12-20T08:47:34;99452.88;;;1.32;100.00
61434;BME280;47300;46.192;9.000;2022-12-20T08:49:59;99454.16;;;1.58;97.52
61434;BME280;47300;46.192;9.000;2022-12-20T08:52:27;99456.06;;;1.80;95.54
61434;BME280;47300;46.192;9.000;2022-12-20T08:54:53;99445.66;;;2.36;86.91
61434;BME280;47300;46.192;9.000;2022-12-20T08:57:18;99454.66;;;2.44;89.42
61434;BME280;47300;46.192;9.000;2022-12-20T08:59:43;99460.06;;;2.49;90.14
61434;BME280;47300;46.192;9.000;2022-12-20T09:02:09;99467.41;;;2.59;90.76
61434;BME280;47300;46.192;9.000;2022-12-20T09:04:34;99465.16;;;2.67;91.12
61434;BME280;47300;46.192;9.000;2022-12-20T09:06:59;99466.81;;;2.65;90.87
61434;BME280;47300;46.192;9.000;2022-12-20T09:09:24;99474.09;;;2.74;91.19
61434;BME280;47300;46.192;9.000;2022-12-20T09:11:50;99472.78;;;2.84;89.45
61434;BME280;47300;46.192;9.000;2022-12-20T09:14:15;99474.34;;;3.00;87.17
61434;BME280;47300;46.192;9.000;2022-12-20T09:16:41;99486.09;;;2.92;89.31
61434;BME280;47300;46.192;9.000;2022-12-20T09:19:06;99485.75;;;2.64;88.84
61434;BME280;47300;46.192;9.000;2022-12-20T09:21:33;99490.59;;;2.76;91.61
61434;BME280;47300;46.192;9.000;2022-12-20T09:23:58;99483.16;;;2.64;88.83
61434;BME280;47300;46.192;9.000;2022-12-20T09:26:24;99486.44;;;2.80;86.32
61434;BME280;47300;46.192;9.000;2022-12-20T09:28:50;99491.16;;;2.88;84.80
61434;BME280;47300;46.192;9.000;2022-12-20T09:31:19;99488.13;;;2.99;83.96
61434;BME280;47300;46.192;9.000;2022-12-20T09:33:45;99484.91;;;3.04;84.87
61434;BME280;47300;46.192;9.000;2022-12-20T09:36:12;99487.25;;;3.19;85.36
61434;BME280;47300;46.192;9.000;2022-12-20T09:38:38;99485.94;;;3.29;85.54
61434;BME280;47300;46.192;9.000;2022-12-20T09:41:05;99490.69;;;3.40;84.91
61434;BME280;47300;46.192;9.000;2022-12-20T09:43:32;99489.59;;;3.35;82.64
61434;BME280;47300;46.192;9.000;2022-12-20T09:46:00;99491.38;;;3.36;82.41
61434;BME280;47300;46.192;9.000;2022-12-20T09:48:37;99483.16;;;3.46;82.23
61434;BME280;47300;46.192;9.000;2022-12-20T09:51:21;99473.66;;;3.46;83.74
61434;BME280;47300;46.192;9.000;2022-12-20T09:56:52;99464.59;;;3.58;84.32
61434;BME280;47300;46.192;9.000;2022-12-20T09:59:20;99470.47;;;3.54;83.39
61434;BME280;47300;46.192;9.000;2022-12-20T10:01:47;99456.88;;;3.59;83.74
61434;BME280;47300;46.192;9.000;2022-12-20T10:04:22;99452.69;;;3.63;83.69
61434;BME280;47300;46.192;9.000;2022-12-20T10:15:20;99443.28;;;3.44;83.02
61434;BME280;47300;46.192;9.000;2022-12-20T10:23:14;99426.69;;;3.40;83.54
61434;BME280;47300;46.192;9.000;2022-12-20T10:25:42;99423.03;;;3.58;85.09
61434;BME280;47300;46.192;9.000;2022-12-20T10:28:13;99422.72;;;3.71;85.72
61434;BME280;47300;46.192;9.000;2022-12-20T10:30:40;99413.63;;;3.83;84.67
61434;BME280;47300;46.192;9.000;2022-12-20T10:33:15;99403.38;;;4.10;83.44
61434;BME280;47300;46.192;9.000;2022-12-20T10:35:43;99414.25;;;4.23;82.78
61434;BME280;47300;46.192;9.000;2022-12-20T10:38:11;99413.75;;;4.33;81.33
61434;BME280;47300;46.192;9.000;2022-12-20T10:41:01;99416.91;;;4.48;81.76
61434;BME280;47300;46.192;9.000;2022-12-20T10:43:41;99412.75;;;4.54;80.54
61434;BME280;47300;46.192;9.000;2022-12-20T10:46:07;99413.00;;;4.60;79.59
61434;BME280;47300;46.192;9.000;2022-12-20T10:48:36;99400.47;;;4.74;79.41
61434;BME280;47300;46.192;9.000;2022-12-20T10:51:23;99400.69;;;4.80;78.13
61434;BME280;47300;46.192;9.000;2022-12-20T10:54:01;99393.84;;;4.84;77.09
61434;BME280;47300;46.192;9.000;2022-12-20T10:58:58;99371.44;;;4.87;76.66
61434;BME280;47300;46.192;9.000;2022-12-20T11:01:28;99362.38;;;5.29;75.67
61434;BME280;47300;46.192;9.000;2022-12-20T11:04:01;99358.50;;;5.44;74.72
61434;BME280;47300;46.192;9.000;2022-12-20T11:06:41;99358.88;;;5.56;71.80
61434;BME280;47300;46.192;9.000;2022-12-20T11:09:30;99339.94;;;5.33;70.74
61434;BME280;47300;46.192;9.000;2022-12-20T11:12:15;99328.81;;;5.11;73.85
61434;BME280;47300;46.192;9.000;2022-12-20T11:14:43;99326.66;;;4.98;74.24
61434;BME280;47300;46.192;9.000;2022-12-20T11:23:02;99353.19;;;5.41;73.16
61434;BME280;47300;46.192;9.000;2022-12-20T11:31:42;99340.91;;;5.65;72.61
61434;BME280;47300;46.192;9.000;2022-12-20T11:40:10;99309.44;;;6.19;72.65
61434;BME280;47300;46.192;9.000;2022-12-20T11:43:03;99304.44;;;6.25;68.70
61434;BME280;47300;46.192;9.000;2022-12-20T11:45:43;99304.66;;;6.02;69.10
61434;BME280;47300;46.192;9.000;2022-12-20T11:48:17;99298.22;;;6.21;69.80
61434;BME280;47300;46.192;9.000;2022-12-20T11:51:12;99286.66;;;6.12;70.52
61434;BME280;47300;46.192;9.000;2022-12-20T11:53:46;99266.25;;;6.29;70.98
61434;BME280;47300;46.192;9.000;2022-12-20T11:56:20;99265.31;;;6.25;69.36
61434;BME280;47300;46.192;9.000;2022-12-20T11:58:51;99254.97;;;6.63;67.46
61434;BME280;47300;46.192;9.000;2022-12-20T12:01:23;99251.69;;;6.37;66.13
61434;BME280;47300;46.192;9.000;2022-12-20T12:06:20;99261.34;;;6.41;66.16
61434;BME280;47300;46.192;9.000;2022-12-20T12:08:52;99257.16;;;6.46;67.37
61434;BME280;47300;46.192;9.000;2022-12-20T12:11:23;99253.69;;;6.83;66.54
61434;BME280;47300;46.192;9.000;2022-12-20T12:13:49;99236.72;;;7.40;65.94
61434;BME280;47300;46.192;9.000;2022-12-20T12:16:24;99233.63;;;7.60;64.01
61434;BME280;47300;46.192;9.000;2022-12-20T12:18:51;99223.63;;;7.83;63.63
61434;BME280;47300;46.192;9.000;2022-12-20T12:24:12;99208.63;;;7.74;60.47
61434;BME280;47300;46.192;9.000;2022-12-20T12:26:42;99218.03;;;8.10;61.12
61434;BME280;47300;46.192;9.000;2022-12-20T12:31:38;99204.69;;;8.44;59.54
61434;BME280;47300;46.192;9.000;2022-12-20T12:41:56;99180.59;;;8.64;57.61
61434;BME280;47300;46.192;9.000;2022-12-20T12:44:45;99181.75;;;8.81;59.29
61434;BME280;47300;46.192;9.000;2022-12-20T12:47:33;99175.72;;;8.89;57.46
61434;BME280;47300;46.192;9.000;2022-12-20T12:50:01;99167.41;;;9.19;58.00
61434;BME280;47300;46.192;9.000;2022-12-20T12:52:41;99164.03;;;9.28;55.20
61434;BME280;47300;46.192;9.000;2022-12-20T12:55:37;99154.16;;;9.08;54.80
61434;BME280;47300;46.192;9.000;2022-12-20T13:03:14;99168.81;;;8.37;57.32
61434;BME280;47300;46.192;9.000;2022-12-20T13:05:41;99169.66;;;8.36;60.22
61434;BME280;47300;46.192;9.000;2022-12-20T13:08:16;99164.97;;;8.16;60.30
61434;BME280;47300;46.192;9.000;2022-12-20T13:10:56;99179.59;;;8.06;59.94
61434;BME280;47300;46.192;9.000;2022-12-20T13:13:22;99186.78;;;8.17;60.61
61434;BME280;47300;46.192;9.000;2022-12-20T13:15:49;99186.00;;;8.22;61.04
61434;BME280;47300;46.192;9.000;2022-12-20T13:20:40;99190.47;;;8.82;59.54
61434;BME280;47300;46.192;9.000;2022-12-20T13:25:33;99176.97;;;9.16;58.31
61434;BME280;47300;46.192;9.000;2022-12-20T13:35:57;99152.22;;;9.66;58.85
61434;BME280;47300;46.192;9.000;2022-12-20T13:40:56;99152.72;;;9.31;60.55
61434;BME280;47300;46.192;9.000;2022-12-20T13:43:25;99143.69;;;9.07;60.38
61434;BME280;47300;46.192;9.000;2022-12-20T13:51:15;99142.03;;;9.15;59.93
61434;BME280;47300;46.192;9.000;2022-12-20T13:53:50;99138.06;;;8.79;59.66
61434;BME280;47300;46.192;9.000;2022-12-20T13:58:52;99131.38;;;9.00;59.67
61434;BME280;47300;46.192;9.000;2022-12-20T14:01:20;99131.63;;;9.20;60.09
61434;BME280;47300;46.192;9.000;2022-12-20T14:03:46;99125.56;;;9.24;57.11
61434;BME280;47300;46.192;9.000;2022-12-20T14:06:13;99126.34;;;9.18;56.34
61434;BME280;47300;46.192;9.000;2022-12-20T14:08:45;99129.72;;;9.08;58.29
61434;BME280;47300;46.192;9.000;2022-12-20T14:11:28;99132.22;;;8.98;58.98
61434;BME280;47300;46.192;9.000;2022-12-20T14:16:23;99124.97;;;8.79;61.22
61434;BME280;47300;46.192;9.000;2022-12-20T14:19:02;99116.22;;;8.77;62.37
61434;BME280;47300;46.192;9.000;2022-12-20T14:21:29;99108.94;;;8.54;62.57
61434;BME280;47300;46.192;9.000;2022-12-20T14:23:56;99111.47;;;8.51;63.74
61434;BME280;47300;46.192;9.000;2022-12-20T14:26:31;99101.78;;;8.45;63.60
61434;BME280;47300;46.192;9.000;2022-12-20T14:29:00;99105.06;;;8.32;63.40
61434;BME280;47300;46.192;9.000;2022-12-20T14:31:37;99096.19;;;8.22;63.93
61434;BME280;47300;46.192;9.000;2022-12-20T14:34:10;99102.94;;;8.07;65.02
61434;BME280;47300;46.192;9.000;2022-12-20T14:39:38;99105.38;;;7.96;66.09
61434;BME280;47300;46.192;9.000;2022-12-20T14:42:18;99103.53;;;7.91;65.03
61434;BME280;47300;46.192;9.000;2022-12-20T14:44:45;99124.25;;;7.78;65.64
61434;BME280;47300;46.192;9.000;2022-12-20T14:47:22;99123.19;;;7.68;66.69
61434;BME280;47300;46.192;9.000;2022-12-20T14:49:54;99136.78;;;7.52;68.85
61434;BME280;47300;46.192;9.000;2022-12-20T14:57:38;99131.34;;;7.39;69.99
61434;BME280;47300;46.192;9.000;2022-12-20T15:00:28;99116.31;;;7.28;69.63
61434;BME280;47300;46.192;9.000;2022-12-20T15:08:30;99125.31;;;7.01;69.31
61434;BME280;47300;46.192;9.000;2022-12-20T15:10:59;99127.88;;;6.98;69.27
61434;BME280;47300;46.192;9.000;2022-12-20T15:13:33;99121.59;;;6.89;69.60